createdAt,value
2018-02-20T00:00:44.618Z,40.45
2018-02-20T00:03:11.247Z,41.22
2018-02-20T00:05:37.886Z,36.42
2018-02-20T00:08:04.529Z,39.25
2018-02-20T00:10:31.265Z,43.35
2018-02-20T00:12:57.879Z,42.28
2018-02-20T00:15:24.546Z,37.78
2018-02-20T00:17:51.167Z,41.83
2018-02-20T00:20:17.782Z,36.38
2018-02-20T00:22:44.406Z,37.00
2018-02-20T00:25:11.106Z,42.70
2018-02-20T00:27:37.842Z,39.53
2018-02-20T00:30:04.454Z,35.95
2018-02-20T00:32:31.118Z,45.00
2018-02-20T00:34:57.748Z,40.25
2018-02-20T00:37:24.362Z,40.70
2018-02-20T00:39:50.990Z,43.45
2018-02-20T00:42:17.718Z,42.10
2018-02-20T00:44:44.421Z,41.30
2018-02-20T00:47:11.054Z,38.92
2018-02-20T00:49:37.662Z,36.33
2018-02-20T00:52:04.334Z,41.83
2018-02-20T00:54:30.958Z,39.50
2018-02-20T00:56:57.926Z,45.85
2018-02-20T00:59:24.556Z,38.40
2018-02-20T01:01:51.186Z,48.17
2018-02-20T01:04:17.803Z,38.58
2018-02-20T01:06:44.473Z,36.92
2018-02-20T01:09:11.083Z,41.65
2018-02-20T01:11:37.690Z,39.03
2018-02-20T01:14:04.394Z,45.53
2018-02-20T01:16:31.038Z,46.88
2018-02-20T01:18:57.656Z,41.22
2018-02-20T01:21:24.281Z,49.40
2018-02-20T01:23:50.954Z,46.17
2018-02-20T01:26:17.560Z,43.00
2018-02-20T01:28:44.230Z,55.58
2018-02-20T01:31:10.843Z,49.83
2018-02-20T01:33:37.509Z,47.20
2018-02-20T01:36:04.134Z,39.63
2018-02-20T01:38:30.786Z,46.78
2018-02-20T01:40:57.466Z,41.90
2018-02-20T01:43:24.226Z,41.90
2018-02-20T01:45:50.906Z,45.70
2018-02-20T01:48:17.530Z,44.13
2018-02-20T01:50:49.918Z,46.85
2018-02-20T01:53:16.542Z,42.83
2018-02-20T01:55:43.157Z,52.80
2018-02-20T01:58:09.852Z,42.45
2018-02-20T02:00:36.478Z,49.45
2018-02-20T02:03:03.090Z,41.03
2018-02-20T02:05:29.703Z,42.05
2018-02-20T02:07:56.393Z,37.47
2018-02-20T02:10:23.005Z,44.50
2018-02-20T02:12:49.617Z,41.03
2018-02-20T02:15:16.309Z,40.63
2018-02-20T02:17:42.950Z,42.88
2018-02-20T02:20:09.564Z,39.80
2018-02-20T02:22:36.313Z,45.70
2018-02-20T02:25:02.931Z,39.88
2018-02-20T02:27:29.609Z,44.67
2018-02-20T02:29:56.226Z,45.03
2018-02-20T02:32:22.837Z,43.97
2018-02-20T02:34:49.466Z,40.85
2018-02-20T02:37:16.175Z,49.63
2018-02-20T02:39:42.803Z,49.78
2018-02-20T02:42:09.414Z,63.42
2018-02-20T02:44:36.031Z,51.25
2018-02-20T02:47:02.725Z,52.53
2018-02-20T02:49:29.342Z,43.15
2018-02-20T02:51:56.006Z,50.15
2018-02-20T02:54:22.637Z,39.17
2018-02-20T02:56:49.276Z,55.03
2018-02-20T02:59:15.910Z,43.70
2018-02-20T03:01:42.533Z,40.90
2018-02-20T03:04:09.143Z,48.55
2018-02-20T03:06:35.834Z,49.25
2018-02-20T03:09:02.439Z,47.55
2018-02-20T03:11:29.065Z,38.55
2018-02-20T03:13:55.678Z,39.20
2018-02-20T03:16:22.389Z,43.00
2018-02-20T03:18:49.018Z,46.10
2018-02-20T03:21:15.672Z,46.37
2018-02-20T03:23:42.308Z,42.00
2018-02-20T03:26:08.944Z,39.90
2018-02-20T03:28:35.594Z,47.70
2018-02-20T03:31:02.227Z,39.55
2018-02-20T03:33:28.862Z,44.83
2018-02-20T03:35:55.479Z,52.85
2018-02-20T03:38:22.094Z,44.05
2018-02-20T03:40:48.782Z,46.35
2018-02-20T03:43:15.418Z,47.08
2018-02-20T03:45:42.038Z,50.72
2018-02-20T03:48:08.701Z,52.47
2018-02-20T03:50:35.322Z,42.62
2018-02-20T03:53:01.938Z,38.15
2018-02-20T03:55:28.657Z,46.40
2018-02-20T03:57:55.357Z,46.45
2018-02-20T04:00:22.097Z,41.00
2018-02-20T04:02:48.710Z,40.50
2018-02-20T04:05:15.329Z,40.22
2018-02-20T04:07:41.957Z,48.50
2018-02-20T04:10:08.666Z,40.97
2018-02-20T04:12:35.278Z,42.95
2018-02-20T04:15:01.910Z,42.10
2018-02-20T04:17:28.614Z,49.22
2018-02-20T04:19:55.313Z,42.72
2018-02-20T04:22:21.922Z,37.92
2018-02-20T04:24:48.550Z,47.80
2018-02-20T04:27:15.229Z,50.42
2018-02-20T04:29:41.874Z,44.10
2018-02-20T04:32:08.502Z,50.30
2018-02-20T04:34:35.114Z,45.12
2018-02-20T04:37:01.754Z,48.87
2018-02-20T04:39:28.369Z,46.50
2018-02-20T04:41:55.067Z,43.65
2018-02-20T04:44:21.807Z,49.35
2018-02-20T04:46:49.343Z,50.55
2018-02-20T04:49:15.962Z,43.05
2018-02-20T04:51:42.641Z,43.70
2018-02-20T04:54:09.286Z,46.95
2018-02-20T04:56:35.901Z,53.05
2018-02-20T04:59:02.538Z,49.10
2018-02-20T05:01:29.210Z,48.15
2018-02-20T05:03:55.826Z,57.08
2018-02-20T05:06:22.449Z,45.55
2018-02-20T05:08:49.118Z,42.58
2018-02-20T05:11:15.734Z,50.25
2018-02-20T05:13:42.361Z,49.50
2018-02-20T05:16:09.038Z,44.35
2018-02-20T05:18:35.654Z,49.15
2018-02-20T05:21:02.286Z,50.20
2018-02-20T05:23:28.996Z,44.42
2018-02-20T05:25:55.739Z,48.13
2018-02-20T05:28:22.365Z,55.45
2018-02-20T05:30:48.973Z,48.58
2018-02-20T05:33:15.585Z,51.30
2018-02-20T05:35:42.215Z,57.92
2018-02-20T05:38:08.826Z,46.08
2018-02-20T05:40:35.429Z,41.67
2018-02-20T05:43:02.056Z,47.40
2018-02-20T05:45:28.710Z,40.08
2018-02-20T05:47:55.322Z,46.88
2018-02-20T05:50:21.991Z,47.78
2018-02-20T05:52:48.626Z,43.95
2018-02-20T05:55:15.242Z,46.97
2018-02-20T05:57:41.901Z,46.95
2018-02-20T06:00:08.585Z,51.63
2018-02-20T06:02:35.194Z,42.17
2018-02-20T06:05:01.922Z,47.78
2018-02-20T06:07:28.564Z,55.40
2018-02-20T06:09:55.180Z,42.55
2018-02-20T06:12:21.811Z,43.92
2018-02-20T06:14:48.421Z,42.70
2018-02-20T06:17:15.026Z,47.55
2018-02-20T06:19:41.659Z,55.03
2018-02-20T06:22:08.294Z,51.88
2018-02-20T06:24:34.934Z,41.35
2018-02-20T06:27:01.673Z,51.08
2018-02-20T06:29:28.356Z,43.42
2018-02-20T06:31:54.961Z,50.75
2018-02-20T06:34:21.694Z,40.45
2018-02-20T06:36:48.310Z,45.38
2018-02-20T06:39:15.015Z,49.22
2018-02-20T06:41:41.654Z,48.20
2018-02-20T06:44:08.276Z,46.45
2018-02-20T06:46:34.933Z,52.38
2018-02-20T06:49:01.639Z,42.60
2018-02-20T06:51:28.249Z,43.13
2018-02-20T06:53:54.952Z,43.72
2018-02-20T06:56:21.575Z,46.13
2018-02-20T06:58:48.298Z,50.05
2018-02-20T07:01:14.929Z,44.83
2018-02-20T07:03:41.558Z,52.05
2018-02-20T07:06:08.212Z,45.40
2018-02-20T07:08:34.855Z,44.03
2018-02-20T07:11:01.485Z,51.37
2018-02-20T07:13:28.125Z,47.53
2018-02-20T07:15:54.773Z,42.33
2018-02-20T07:18:21.506Z,46.45
2018-02-20T07:20:48.121Z,50.88
2018-02-20T07:23:14.782Z,45.83
2018-02-20T07:25:41.410Z,51.53
2018-02-20T07:28:08.027Z,51.10
2018-02-20T07:30:34.639Z,42.88
2018-02-20T07:33:01.384Z,46.65
2018-02-20T07:35:27.993Z,51.45
2018-02-20T07:37:54.619Z,48.05
2018-02-20T07:40:21.262Z,48.78
2018-02-20T07:42:47.874Z,45.30
2018-02-20T07:45:14.476Z,55.33
2018-02-20T07:47:41.114Z,49.53
2018-02-20T07:50:07.751Z,51.65
2018-02-20T07:52:34.358Z,44.65
2018-02-20T07:55:01.032Z,44.42
2018-02-20T07:57:27.738Z,46.70
2018-02-20T07:59:54.374Z,44.05
2018-02-20T08:02:21.051Z,49.95
2018-02-20T08:04:47.661Z,48.53
2018-02-20T08:07:14.432Z,43.95
2018-02-20T08:09:40.914Z,44.35
2018-02-20T08:12:07.569Z,45.10
2018-02-20T08:14:34.186Z,47.88
2018-02-20T08:17:00.813Z,51.20
2018-02-20T08:19:27.529Z,50.63
2018-02-20T08:21:54.231Z,47.90
2018-02-20T08:24:20.965Z,48.20
2018-02-20T08:26:47.649Z,55.05
2018-02-20T08:29:14.257Z,46.03
2018-02-20T08:31:41.028Z,45.42
2018-02-20T08:34:07.638Z,47.60
2018-02-20T08:36:34.249Z,47.97
2018-02-20T08:39:00.878Z,53.20
2018-02-20T08:41:27.494Z,52.78
2018-02-20T08:43:54.188Z,43.58
2018-02-20T08:46:20.826Z,49.00
2018-02-20T08:48:47.434Z,47.83
2018-02-20T08:51:14.046Z,49.53
2018-02-20T08:53:40.733Z,48.70
2018-02-20T08:56:07.349Z,54.13
2018-02-20T08:58:34.023Z,44.72
2018-02-20T09:01:00.658Z,49.90
2018-02-20T09:03:27.302Z,50.05
2018-02-20T09:05:53.917Z,57.97
2018-02-20T09:08:20.573Z,50.03
2018-02-20T09:10:47.191Z,48.20
2018-02-20T09:13:13.812Z,53.33
2018-02-20T09:15:40.533Z,48.35
2018-02-20T09:18:07.137Z,60.00
2018-02-20T09:20:33.764Z,49.15
2018-02-20T09:23:00.394Z,46.47
2018-02-20T09:25:27.076Z,48.60
2018-02-20T09:27:53.693Z,55.47
2018-02-20T09:30:20.322Z,48.35
2018-02-20T09:32:47.006Z,52.13
2018-02-20T09:35:13.748Z,50.00
2018-02-20T09:37:40.374Z,49.03
2018-02-20T09:40:07.089Z,49.95
2018-02-20T09:42:33.706Z,50.25
2018-02-20T09:45:00.339Z,51.72
2018-02-20T09:47:26.949Z,57.65
2018-02-20T09:49:53.685Z,52.90
2018-02-20T09:52:20.315Z,51.40
2018-02-20T09:54:47.026Z,58.95
2018-02-20T09:57:13.705Z,56.55
2018-02-20T09:59:40.410Z,56.08
2018-02-20T10:02:07.037Z,54.58
2018-02-20T10:04:33.725Z,49.33
2018-02-20T10:07:00.366Z,57.25
2018-02-20T10:09:27.065Z,59.78
2018-02-20T10:11:53.685Z,52.00
2018-02-20T10:14:20.314Z,49.08
2018-02-20T10:16:46.925Z,40.72
2018-02-20T10:19:13.534Z,45.40
2018-02-20T10:21:40.257Z,54.80
2018-02-20T10:24:06.902Z,46.20
2018-02-20T10:26:33.537Z,48.40
2018-02-20T10:29:00.165Z,42.05
2018-02-20T10:31:26.808Z,54.35
2018-02-20T10:33:53.430Z,46.83
2018-02-20T10:36:20.093Z,44.97
2018-02-20T10:38:46.733Z,46.67
2018-02-20T10:41:13.374Z,42.65
2018-02-20T10:43:40.006Z,43.83
2018-02-20T10:46:06.614Z,49.20
2018-02-20T10:48:33.288Z,42.55
2018-02-20T10:51:00.030Z,43.38
2018-02-20T10:53:26.650Z,45.20
2018-02-20T10:55:53.261Z,53.47
2018-02-20T10:58:19.886Z,42.40
2018-02-20T11:00:46.589Z,42.50
2018-02-20T11:03:13.268Z,52.42
2018-02-20T11:05:40.009Z,49.80
2018-02-20T11:08:06.628Z,41.30
2018-02-20T11:10:33.228Z,46.50
2018-02-20T11:12:59.857Z,41.33
2018-02-20T11:15:26.527Z,46.53
2018-02-20T11:17:53.163Z,47.97
2018-02-20T11:20:19.906Z,44.22
2018-02-20T11:22:46.517Z,40.85
2018-02-20T11:25:13.182Z,47.05
2018-02-20T11:27:39.818Z,43.90
2018-02-20T11:30:06.430Z,42.35
2018-02-20T11:32:33.038Z,39.13
2018-02-20T11:34:59.742Z,43.78
2018-02-20T11:37:26.421Z,44.17
2018-02-20T11:39:53.123Z,46.37
2018-02-20T11:42:19.801Z,49.25
2018-02-20T11:44:46.501Z,45.63
2018-02-20T11:47:13.113Z,37.95
2018-02-20T11:49:39.742Z,45.63
2018-02-20T11:52:06.358Z,50.08
2018-02-20T11:54:33.057Z,52.90
2018-02-20T11:56:59.798Z,47.97
2018-02-20T11:59:26.408Z,42.22
2018-02-20T12:01:53.118Z,46.45
2018-02-20T12:04:19.758Z,45.67
2018-02-20T12:06:46.365Z,48.30
2018-02-20T12:09:13.007Z,38.53
2018-02-20T12:11:39.734Z,44.83
2018-02-20T12:14:06.347Z,44.28
2018-02-20T12:16:33.059Z,45.75
2018-02-20T12:18:59.648Z,46.03
2018-02-20T12:21:26.258Z,43.85
2018-02-20T12:23:52.972Z,45.88
2018-02-20T12:26:19.599Z,45.55
2018-02-20T12:28:46.313Z,43.30
2018-02-20T12:31:12.954Z,45.72
2018-02-20T12:33:39.578Z,38.45
2018-02-20T12:36:06.198Z,43.10
2018-02-20T12:38:32.909Z,48.87
2018-02-20T12:40:59.608Z,45.20
2018-02-20T12:43:26.221Z,43.55
2018-02-20T12:45:52.829Z,39.25
2018-02-20T12:48:19.463Z,39.95
2018-02-20T12:50:46.079Z,45.60
2018-02-20T12:53:12.688Z,43.25
2018-02-20T12:55:39.342Z,47.35
2018-02-20T12:58:05.983Z,41.92
2018-02-20T13:00:32.661Z,42.15
2018-02-20T13:02:59.296Z,43.13
2018-02-20T13:05:26.006Z,42.85
2018-02-20T13:07:52.622Z,38.83
2018-02-20T13:10:19.277Z,35.95
2018-02-20T13:12:45.890Z,39.10
2018-02-20T13:15:12.505Z,40.35
2018-02-20T13:17:39.197Z,40.10
2018-02-20T13:20:05.843Z,42.72
2018-02-20T13:22:32.449Z,43.30
2018-02-20T13:24:59.078Z,47.58
2018-02-20T13:27:25.691Z,44.13
2018-02-20T13:29:52.389Z,43.17
2018-02-20T13:32:19.038Z,45.55
2018-02-20T13:34:45.711Z,37.47
2018-02-20T13:37:12.322Z,40.53
2018-02-20T13:39:39.066Z,42.85
2018-02-20T13:42:05.794Z,44.67
2018-02-20T13:44:32.430Z,40.78
2018-02-20T13:46:59.070Z,47.35
2018-02-20T13:49:25.711Z,37.13
2018-02-20T13:51:52.352Z,38.38
2018-02-20T13:54:18.982Z,47.40
2018-02-20T13:56:45.629Z,41.47
2018-02-20T13:59:12.246Z,44.25
2018-02-20T14:01:38.905Z,42.40
2018-02-20T14:04:05.554Z,43.40
2018-02-20T14:06:32.162Z,41.92
2018-02-20T14:08:58.863Z,42.90
2018-02-20T14:11:25.503Z,46.85
2018-02-20T14:13:52.206Z,40.85
2018-02-20T14:16:18.883Z,38.03
2018-02-20T14:18:45.501Z,42.13
2018-02-20T14:21:12.221Z,43.08
2018-02-20T14:23:38.870Z,46.65
2018-02-20T14:26:05.544Z,40.92
2018-02-20T14:28:32.146Z,42.72
2018-02-20T14:30:58.884Z,45.70
2018-02-20T14:33:25.494Z,49.00
2018-02-20T14:35:52.202Z,44.80
2018-02-20T14:38:18.823Z,47.60
2018-02-20T14:40:45.582Z,49.70
2018-02-20T14:43:12.190Z,48.35
2018-02-20T14:45:38.827Z,50.58
2018-02-20T14:48:05.453Z,47.08
2018-02-20T14:50:32.140Z,52.95
2018-02-20T14:52:58.773Z,45.12
2018-02-20T14:55:25.382Z,44.85
2018-02-20T14:57:51.998Z,46.92
2018-02-20T15:00:18.697Z,48.58
2018-02-20T15:02:45.393Z,54.63
2018-02-20T15:05:12.006Z,44.55
2018-02-20T15:07:38.673Z,45.25
2018-02-20T15:10:05.281Z,51.50
2018-02-20T15:12:31.893Z,45.42
2018-02-20T15:14:58.590Z,45.63
2018-02-20T15:17:25.229Z,45.12
2018-02-20T15:19:51.899Z,38.88
2018-02-20T15:22:18.481Z,45.63
2018-02-20T15:24:45.110Z,46.00
2018-02-20T15:27:11.726Z,53.00
2018-02-20T15:29:38.421Z,50.53
2018-02-20T15:32:05.029Z,42.75
2018-02-20T15:34:31.646Z,49.53
2018-02-20T15:36:58.389Z,45.95
2018-02-20T15:39:25.006Z,52.05
2018-02-20T15:41:51.618Z,47.80
2018-02-20T15:44:18.338Z,45.30
2018-02-20T15:46:45.002Z,46.17
2018-02-20T15:49:11.617Z,50.50
2018-02-20T15:51:38.246Z,44.08
2018-02-20T15:54:04.859Z,50.45
2018-02-20T15:56:31.466Z,48.20
2018-02-20T15:58:58.099Z,45.45
2018-02-20T16:01:24.706Z,43.58
2018-02-20T16:03:51.378Z,43.80
2018-02-20T16:06:18.114Z,48.90
2018-02-20T16:08:44.759Z,47.35
2018-02-20T16:11:11.370Z,56.15
2018-02-20T16:13:38.010Z,49.45
2018-02-20T16:16:09.165Z,46.17
2018-02-20T16:18:35.825Z,55.08
2018-02-20T16:21:02.446Z,48.83
2018-02-20T16:23:29.058Z,45.90
2018-02-20T16:25:55.674Z,45.88
2018-02-20T16:28:22.306Z,52.75
2018-02-20T16:30:49.014Z,44.33
2018-02-20T16:33:15.626Z,49.05
2018-02-20T16:35:42.253Z,50.28
2018-02-20T16:38:08.971Z,53.00
2018-02-20T16:40:35.671Z,44.58
2018-02-20T16:43:02.423Z,49.60
2018-02-20T16:45:29.054Z,40.85
2018-02-20T16:47:55.662Z,53.78
2018-02-20T16:50:22.292Z,51.63
2018-02-20T16:52:48.972Z,51.45
2018-02-20T16:55:15.591Z,51.42
2018-02-20T16:57:42.220Z,50.72
2018-02-20T17:00:08.927Z,49.30
2018-02-20T17:02:35.622Z,55.05
2018-02-20T17:05:02.267Z,55.33
2018-02-20T17:07:28.888Z,55.90
2018-02-20T17:09:55.546Z,46.58
2018-02-20T17:12:22.182Z,51.22
2018-02-20T17:14:48.789Z,53.55
2018-02-20T17:17:15.401Z,67.10
2018-02-20T17:19:42.030Z,58.13
2018-02-20T17:22:08.641Z,60.60
2018-02-20T17:24:35.259Z,49.45
2018-02-20T17:27:01.890Z,52.90
2018-02-20T17:29:28.558Z,51.03
2018-02-20T17:31:55.689Z,52.10
2018-02-20T17:34:22.319Z,50.70
2018-02-20T17:36:48.934Z,54.58
2018-02-20T17:39:15.550Z,59.92
2018-02-20T17:41:42.263Z,58.00
2018-02-20T17:44:08.876Z,54.22
2018-02-20T17:46:35.542Z,56.50
2018-02-20T17:49:02.175Z,60.38
2018-02-20T17:51:28.790Z,56.78
2018-02-20T17:53:55.405Z,53.03
2018-02-20T17:56:22.031Z,61.80
2018-02-20T17:58:48.645Z,57.40
2018-02-20T18:01:15.280Z,58.30
2018-02-20T18:03:41.910Z,58.25
2018-02-20T18:06:08.522Z,63.25
2018-02-20T18:08:35.152Z,64.25
2018-02-20T18:11:01.790Z,63.30
2018-02-20T18:13:28.402Z,58.55
2018-02-20T18:15:55.013Z,66.28
2018-02-20T18:18:21.646Z,61.37
2018-02-20T18:20:48.282Z,59.45
2018-02-20T18:23:14.898Z,64.87
2018-02-20T18:25:41.526Z,58.87
2018-02-20T18:28:08.202Z,63.00
2018-02-20T18:30:34.855Z,58.65
2018-02-20T18:33:01.482Z,60.75
2018-02-20T18:35:28.098Z,62.65
2018-02-20T18:37:54.758Z,53.72
2018-02-20T18:40:21.386Z,57.95
2018-02-20T18:42:47.998Z,59.10
2018-02-20T18:45:14.673Z,63.87
2018-02-20T18:47:41.413Z,56.47
2018-02-20T18:50:08.029Z,59.03
2018-02-20T18:52:34.694Z,63.67
2018-02-20T18:55:01.442Z,64.47
2018-02-20T18:57:28.062Z,53.70
2018-02-20T18:59:54.673Z,66.07
2018-02-20T19:02:21.311Z,62.40
2018-02-20T19:04:47.950Z,63.92
2018-02-20T19:07:14.568Z,55.92
2018-02-20T19:09:41.189Z,71.57
2018-02-20T19:12:07.810Z,109.50
2018-02-20T19:14:34.422Z,62.10
2018-02-20T19:17:01.085Z,58.83
2018-02-20T19:19:27.726Z,58.28
2018-02-20T19:21:54.387Z,62.53
2018-02-20T19:24:21.022Z,64.72
2018-02-20T19:26:47.635Z,63.70
2018-02-20T19:29:14.266Z,59.83
2018-02-20T19:31:40.896Z,64.25
2018-02-20T19:34:07.557Z,68.12
2018-02-20T19:36:34.197Z,55.70
2018-02-20T19:39:00.822Z,63.17
2018-02-20T19:41:27.484Z,59.53
2018-02-20T19:43:54.118Z,65.10
2018-02-20T19:46:20.799Z,59.20
2018-02-20T19:48:47.411Z,65.82
2018-02-20T19:51:14.074Z,70.85
2018-02-20T19:53:40.773Z,71.90
2018-02-20T19:56:07.455Z,68.85
2018-02-20T19:58:34.060Z,65.07
2018-02-20T20:01:00.689Z,59.53
2018-02-20T20:03:27.310Z,68.43
2018-02-20T20:05:54.015Z,68.97
2018-02-20T20:08:20.642Z,70.28
2018-02-20T20:10:47.254Z,67.18
2018-02-20T20:13:13.869Z,74.30
2018-02-20T20:15:40.525Z,75.05
2018-02-20T20:18:07.162Z,75.15
2018-02-20T20:20:37.010Z,78.87
2018-02-20T20:23:00.546Z,63.78
2018-02-20T20:25:27.162Z,69.45
2018-02-20T20:27:53.826Z,72.82
2018-02-20T20:30:20.455Z,73.62
2018-02-20T20:32:47.058Z,70.65
2018-02-20T20:35:13.742Z,72.37
2018-02-20T20:37:40.408Z,68.62
2018-02-20T20:40:07.020Z,70.95
2018-02-20T20:42:33.629Z,75.12
2018-02-20T20:45:00.303Z,74.72
2018-02-20T20:47:26.914Z,77.65
2018-02-20T20:49:53.534Z,72.60
2018-02-20T20:52:20.169Z,87.78
2018-02-20T20:54:46.839Z,82.78
2018-02-20T20:57:13.498Z,80.20
2018-02-20T20:59:40.121Z,77.43
2018-02-20T21:02:06.733Z,74.25
2018-02-20T21:04:33.418Z,70.22
2018-02-20T21:07:00.042Z,83.00
2018-02-20T21:09:26.690Z,77.53
2018-02-20T21:11:53.305Z,79.60
2018-02-20T21:14:19.929Z,76.70
2018-02-20T21:16:46.606Z,78.72
2018-02-20T21:19:13.214Z,81.80
2018-02-20T21:21:39.882Z,93.85
2018-02-20T21:24:06.494Z,82.03
2018-02-20T21:26:33.106Z,80.05
2018-02-20T21:28:59.734Z,77.53
2018-02-20T21:31:26.441Z,92.10
2018-02-20T21:33:53.053Z,80.75
2018-02-20T21:36:19.726Z,84.50
2018-02-20T21:38:46.335Z,87.90
2018-02-20T21:41:12.946Z,93.15
2018-02-20T21:43:39.574Z,92.28
2018-02-20T21:46:06.279Z,101.70
2018-02-20T21:48:32.887Z,96.87
2018-02-20T21:50:59.554Z,92.22
2018-02-20T21:53:26.166Z,97.53
2018-02-20T21:55:52.777Z,94.75
2018-02-20T21:58:19.414Z,100.75
2018-02-20T22:00:46.022Z,95.45
2018-02-20T22:03:12.637Z,93.47
2018-02-20T22:05:39.270Z,99.25
2018-02-20T22:08:05.886Z,92.45
2018-02-20T22:10:32.561Z,93.40
2018-02-20T22:12:59.246Z,107.05
2018-02-20T22:15:25.862Z,100.15
2018-02-20T22:17:52.587Z,98.20
2018-02-20T22:20:19.326Z,113.72
2018-02-20T22:22:45.970Z,109.32
2018-02-20T22:25:12.605Z,125.47
2018-02-20T22:27:39.243Z,119.30
2018-02-20T22:30:05.887Z,125.62
2018-02-20T22:32:32.505Z,111.07
2018-02-20T22:34:59.203Z,100.53
2018-02-20T22:37:25.906Z,114.03
2018-02-20T22:39:52.542Z,103.45
2018-02-20T22:42:19.174Z,108.12
2018-02-20T22:44:45.822Z,114.55
2018-02-20T22:47:12.456Z,118.45
2018-02-20T22:49:39.084Z,121.07
2018-02-20T22:52:05.738Z,107.93
2018-02-20T22:54:32.358Z,103.85
2018-02-20T22:56:58.985Z,106.18
2018-02-20T22:59:25.601Z,104.15
2018-02-20T23:01:52.221Z,119.18
2018-02-20T23:04:18.858Z,104.28
2018-02-20T23:06:45.468Z,120.93
2018-02-20T23:09:12.077Z,107.15
2018-02-20T23:11:44.694Z,104.60
2018-02-20T23:14:11.331Z,103.70
2018-02-20T23:16:37.970Z,101.45
2018-02-20T23:19:04.594Z,99.93
2018-02-20T23:21:31.209Z,105.65
2018-02-20T23:23:57.894Z,108.75
2018-02-20T23:26:24.526Z,110.97
2018-02-20T23:28:51.143Z,111.22
2018-02-20T23:31:17.758Z,107.10
2018-02-20T23:33:44.437Z,106.05
2018-02-20T23:36:11.062Z,112.70
2018-02-20T23:38:37.718Z,118.97
2018-02-20T23:41:04.458Z,113.37
2018-02-20T23:43:31.070Z,112.72
2018-02-20T23:45:57.682Z,115.45
2018-02-20T23:48:24.417Z,112.30
2018-02-20T23:50:51.026Z,110.15
2018-02-20T23:53:22.614Z,111.53
2018-02-20T23:55:49.315Z,118.25
2018-02-20T23:58:15.992Z,116.53
